Tzoanna Vi — SYHY — position and weather

sailwx.info

Track history (hours):
 
Tides and Currents Weather Stations Pressure Air Temp Water Temp Dewpoint Dewpoint Depression Visibility Wind Speed Wind Dir Waves Ship Positions

Tzoanna Vi

Last reported at 2015-May-23 18:16 UTC. Time now 2015-May-27 05:36 UTC.
Position N 38°23' E 024°02'.

Length 84 m; draft 5.5 m.

Type: Cargo ship. MMSI: 237991700.

Date/timePositionNaut miles runAvg speedWind from/ knotsBaromVisibWave heightAir tempDewpointWater temp
2015-May-23 18:16N 38°23' E 024°02'22 0.7
2015-May-22 10:30N 38°01' E 024°06'27 6.4
2015-May-22 06:21N 37°39' E 023°47'6 7.8
2015-May-22 05:34N 37°43' E 023°40'8 8.3
2015-May-22 04:33N 37°50' E 023°34'9 8.8
2015-May-22 03:34N 37°51' E 023°23'9 8.9
2015-May-22 02:30N 37°52' E 023°11'7 0.4
2015-May-21 09:10N 37°54' E 023°02'0 0.7
2015-May-21 08:33N 37°54' E 023°02'8 7.6
2015-May-21 07:33N 37°53' E 023°11'9 9.4
2015-May-21 06:33N 37°52' E 023°23'10 9.6
2015-May-21 05:33N 37°50' E 023°35'8 7.7
2015-May-21 04:33N 37°45' E 023°43'9 9.2
2015-May-21 03:34N 37°39' E 023°51'10 9.3
2015-May-21 02:28N 37°38' E 024°04'11 9.9
2015-May-21 01:21N 37°44' E 024°16'36 8.7
2015-May-20 21:15N 38°18' E 024°31'98 2.1
2015-May-18 21:32N 36°41' E 024°57'9 8.3
2015-May-18 20:27N 36°33' E 025°01'11 8.5
2015-May-18 19:11N 36°24' E 025°08'5 8.7
2015-May-18 18:33N 36°19' E 025°11'9 8.6
2015-May-18 17:33N 36°12' E 025°16'9 8.6
2015-May-18 16:33N 36°04' E 025°21'9 8.7
2015-May-18 15:30N 35°55' E 025°26'8 8.6
2015-May-18 14:33N 35°48' E 025°31'8 8.5
2015-May-18 13:33N 35°41' E 025°35'9 8.7
2015-May-18 12:29N 35°32' E 025°40'28 1.5
2015-May-17 17:31N 35°21' E 025°09'0 0.0
2015-May-17 16:32N 35°21' E 025°09'0 0.0
2015-May-17 15:32N 35°21' E 025°09'0 0.0
2015-May-17 14:32N 35°21' E 025°09'0 0.0
2015-May-17 13:30N 35°21' E 025°09'0 0.0
2015-May-17 12:32N 35°21' E 025°09'0 0.0
2015-May-17 11:31N 35°21' E 025°09'0 0.0
2015-May-17 10:33N 35°21' E 025°09'0 0.0
2015-May-17 09:33N 35°21' E 025°09'0 0.0
2015-May-17 08:33N 35°21' E 025°09'0 0.0
2015-May-17 07:32N 35°21' E 025°09'0 0.1
2015-May-17 06:32N 35°21' E 025°09'6 6.6
2015-May-17 05:33N 35°27' E 025°09'9 8.7
2015-May-17 04:33N 35°36' E 025°08'9 8.5
2015-May-17 03:33N 35°45' E 025°06'9 8.6
2015-May-17 02:32N 35°53' E 025°05'9 8.4
2015-May-17 01:31N 36°02' E 025°04'8 8.2
2015-May-17 00:32N 36°10' E 025°02'8 8.0
2015-May-16 23:32N 36°18' E 025°01'8 8.3
2015-May-16 22:32N 36°26' E 025°00'8 8.7
2015-May-16 21:33N 36°34' E 024°59'106 8.1
2015-May-16 08:29N 38°18' E 024°31'  
Track history (hours):
 
Tides and Currents Weather Stations Pressure Air Temp Water Temp Dewpoint Dewpoint Depression Visibility Wind Speed Wind Dir Waves Ship Positions

Tzoanna Vi

Last reported at 2015-May-23 18:16 UTC. Time now 2015-May-27 05:36 UTC.
Position N 38°23' E 024°02'.

Length 84 m; draft 5.5 m.

Type: Cargo ship. MMSI: 237991700.

Date/timePositionNaut miles runAvg speedWind from/ knotsBaromVisibWave heightAir tempDewpointWater temp
2015-May-23 18:16N 38°23' E 024°02'22 0.7
2015-May-22 10:30N 38°01' E 024°06'27 6.4
2015-May-22 06:21N 37°39' E 023°47'6 7.8
2015-May-22 05:34N 37°43' E 023°40'8 8.3
2015-May-22 04:33N 37°50' E 023°34'9 8.8
2015-May-22 03:34N 37°51' E 023°23'9 8.9
2015-May-22 02:30N 37°52' E 023°11'7 0.4
2015-May-21 09:10N 37°54' E 023°02'0 0.7
2015-May-21 08:33N 37°54' E 023°02'8 7.6
2015-May-21 07:33N 37°53' E 023°11'9 9.4
2015-May-21 06:33N 37°52' E 023°23'10 9.6
2015-May-21 05:33N 37°50' E 023°35'8 7.7
2015-May-21 04:33N 37°45' E 023°43'9 9.2
2015-May-21 03:34N 37°39' E 023°51'10 9.3
2015-May-21 02:28N 37°38' E 024°04'11 9.9
2015-May-21 01:21N 37°44' E 024°16'36 8.7
2015-May-20 21:15N 38°18' E 024°31'98 2.1
2015-May-18 21:32N 36°41' E 024°57'9 8.3
2015-May-18 20:27N 36°33' E 025°01'11 8.5
2015-May-18 19:11N 36°24' E 025°08'5 8.7
2015-May-18 18:33N 36°19' E 025°11'9 8.6
2015-May-18 17:33N 36°12' E 025°16'9 8.6
2015-May-18 16:33N 36°04' E 025°21'9 8.7
2015-May-18 15:30N 35°55' E 025°26'8 8.6
2015-May-18 14:33N 35°48' E 025°31'8 8.5
2015-May-18 13:33N 35°41' E 025°35'9 8.7
2015-May-18 12:29N 35°32' E 025°40'28 1.5
2015-May-17 17:31N 35°21' E 025°09'0 0.0
2015-May-17 16:32N 35°21' E 025°09'0 0.0
2015-May-17 15:32N 35°21' E 025°09'0 0.0
2015-May-17 14:32N 35°21' E 025°09'0 0.0
2015-May-17 13:30N 35°21' E 025°09'0 0.0
2015-May-17 12:32N 35°21' E 025°09'0 0.0
2015-May-17 11:31N 35°21' E 025°09'0 0.0
2015-May-17 10:33N 35°21' E 025°09'0 0.0
2015-May-17 09:33N 35°21' E 025°09'0 0.0
2015-May-17 08:33N 35°21' E 025°09'0 0.0
2015-May-17 07:32N 35°21' E 025°09'0 0.1
2015-May-17 06:32N 35°21' E 025°09'6 6.6
2015-May-17 05:33N 35°27' E 025°09'9 8.7
2015-May-17 04:33N 35°36' E 025°08'9 8.5
2015-May-17 03:33N 35°45' E 025°06'9 8.6
2015-May-17 02:32N 35°53' E 025°05'9 8.4
2015-May-17 01:31N 36°02' E 025°04'8 8.2
2015-May-17 00:32N 36°10' E 025°02'8 8.0
2015-May-16 23:32N 36°18' E 025°01'8 8.3
2015-May-16 22:32N 36°26' E 025°00'8 8.7
2015-May-16 21:33N 36°34' E 024°59'106 8.1
2015-May-16 08:29N 38°18' E 024°31'  

Dump ship's entire track history